createdAt,value
2023-02-24T00:02:04.147Z,99870.05
2023-02-24T00:04:34.091Z,99866.57
2023-02-24T00:07:02.891Z,99861.13
2023-02-24T00:09:33.229Z,99854.63
2023-02-24T00:12:04.840Z,99849.42
2023-02-24T00:14:37.900Z,99844.61
2023-02-24T00:17:08.336Z,99846.42
2023-02-24T00:19:36.688Z,99839.73
2023-02-24T00:22:08.319Z,99840.00
2023-02-24T00:24:37.921Z,99834.97
2023-02-24T00:27:12.723Z,99829.61
2023-02-24T00:29:45.118Z,99824.22
2023-02-24T00:32:14.846Z,99813.34
2023-02-24T00:34:44.656Z,99815.18
2023-02-24T00:37:15.457Z,99808.32
2023-02-24T00:39:45.700Z,99803.55
2023-02-24T00:42:15.451Z,99796.34
2023-02-24T00:44:45.176Z,99789.91
2023-02-24T00:47:13.711Z,99788.13
2023-02-24T00:49:43.451Z,99775.34
2023-02-24T00:52:13.945Z,99769.48
2023-02-24T00:54:43.469Z,99754.06
2023-02-24T00:57:11.717Z,99747.55
2023-02-24T00:59:42.448Z,99739.84
2023-02-24T01:02:11.454Z,99734.99
2023-02-24T01:04:39.978Z,99730.04
2023-02-24T01:07:10.977Z,99731.52
2023-02-24T01:09:40.439Z,99726.91
2023-02-24T01:12:29.351Z,99725.67
2023-02-24T01:14:57.614Z,99721.32
2023-02-24T01:17:28.645Z,99709.66
2023-02-24T01:20:00.897Z,99698.10
2023-02-24T01:22:29.337Z,99693.00
2023-02-24T01:24:57.562Z,99684.94
2023-02-24T01:27:25.636Z,99687.23
2023-02-24T01:29:55.490Z,99688.23
2023-02-24T01:32:25.659Z,99683.20
2023-02-24T01:34:54.161Z,99676.06
2023-02-24T01:37:22.376Z,99675.59
2023-02-24T01:39:50.687Z,99670.67
2023-02-24T01:42:20.559Z,99667.35
2023-02-24T01:44:48.930Z,99668.77
2023-02-24T01:47:18.273Z,99667.20
2023-02-24T01:49:51.949Z,99662.61
2023-02-24T01:52:20.995Z,99656.38
2023-02-24T01:54:56.357Z,99658.23
2023-02-24T01:57:27.249Z,99654.65
2023-02-24T01:59:55.477Z,99652.77
2023-02-24T02:02:23.759Z,99647.13
2023-02-24T02:04:59.992Z,99643.84
2023-02-24T02:07:31.614Z,99640.08
2023-02-24T02:10:06.472Z,99638.16
2023-02-24T02:12:44.113Z,99633.77
2023-02-24T02:15:13.685Z,99628.22
2023-02-24T02:18:07.502Z,99620.47
2023-02-24T02:21:18.843Z,99612.75
2023-02-24T02:23:49.999Z,99605.73
2023-02-24T02:27:03.537Z,99600.27
2023-02-24T02:29:49.286Z,99591.02
2023-02-24T02:32:24.509Z,99580.94
2023-02-24T02:34:59.262Z,99579.94
2023-02-24T02:37:33.045Z,99577.89
2023-02-24T02:40:24.621Z,99575.73
2023-02-24T02:43:33.009Z,99572.39
2023-02-24T02:46:03.831Z,99571.09
2023-02-24T02:48:49.242Z,99573.55
2023-02-24T02:51:24.793Z,99567.28
2023-02-24T02:54:46.107Z,99560.86
2023-02-24T02:57:29.037Z,99559.50
2023-02-24T03:00:13.998Z,99552.70
2023-02-24T03:02:44.503Z,99551.52
2023-02-24T03:05:17.469Z,99549.08
2023-02-24T03:08:59.576Z,99540.30
2023-02-24T03:11:28.236Z,99543.73
2023-02-24T03:13:56.649Z,99538.63
2023-02-24T03:16:26.670Z,99531.06
2023-02-24T03:18:59.396Z,99525.63
2023-02-24T03:21:39.864Z,99527.11
2023-02-24T03:24:08.049Z,99521.08
2023-02-24T03:27:23.076Z,99524.06
2023-02-24T03:29:54.145Z,99516.53
2023-02-24T03:32:33.764Z,99515.86
2023-02-24T03:35:17.057Z,99510.77
2023-02-24T03:37:47.227Z,99508.21
2023-02-24T03:40:18.344Z,99505.02
2023-02-24T03:42:48.986Z,99497.84
2023-02-24T03:45:17.864Z,99494.89
2023-02-24T03:47:46.846Z,99497.90
2023-02-24T03:50:17.781Z,99489.29
2023-02-24T03:53:10.136Z,99483.84
2023-02-24T03:56:00.591Z,99484.53
2023-02-24T03:58:47.201Z,99479.66
2023-02-24T04:01:42.222Z,99473.60
2023-02-24T04:04:16.977Z,99472.57
2023-02-24T04:06:56.361Z,99466.36
2023-02-24T04:09:33.215Z,99462.98
2023-02-24T04:12:33.033Z,99461.10
2023-02-24T04:15:21.253Z,99456.00
2023-02-24T04:17:54.789Z,99459.87
2023-02-24T04:20:27.960Z,99455.17
2023-02-24T04:23:01.809Z,99449.84
2023-02-24T04:25:31.067Z,99441.55
2023-02-24T04:27:59.755Z,99440.79
2023-02-24T04:30:33.528Z,99436.00
2023-02-24T04:33:02.303Z,99431.52
2023-02-24T04:35:33.096Z,99430.45
2023-02-24T04:38:02.833Z,99425.61
2023-02-24T04:40:32.736Z,99417.69
2023-02-24T04:43:01.148Z,99412.67
2023-02-24T04:45:32.815Z,99410.14
2023-02-24T04:48:02.086Z,99408.77
2023-02-24T04:50:35.469Z,99406.40
2023-02-24T04:53:09.465Z,99405.39
2023-02-24T04:55:42.597Z,99400.38
2023-02-24T04:58:19.331Z,99401.32
2023-02-24T05:00:52.822Z,99400.83
2023-02-24T05:03:30.055Z,99402.30
2023-02-24T05:06:00.226Z,99397.83
2023-02-24T05:08:30.657Z,99391.45
2023-02-24T05:11:00.936Z,99388.66
2023-02-24T05:13:32.117Z,99385.38
2023-02-24T05:16:06.367Z,99378.50
2023-02-24T05:18:37.024Z,99379.20
2023-02-24T05:21:31.385Z,99380.89
2023-02-24T05:23:59.700Z,99384.42
2023-02-24T05:26:44.495Z,99379.69
2023-02-24T05:29:15.008Z,99381.50
2023-02-24T05:31:44.133Z,99376.48
2023-02-24T05:34:17.053Z,99374.35
2023-02-24T05:36:46.633Z,99370.39
2023-02-24T05:39:19.265Z,99370.84
2023-02-24T05:41:48.683Z,99364.18
2023-02-24T05:44:22.862Z,99357.90
2023-02-24T05:46:56.782Z,99361.05
2023-02-24T05:49:28.605Z,99355.57
2023-02-24T05:51:58.060Z,99353.89
2023-02-24T05:54:31.253Z,99353.27
2023-02-24T05:57:00.694Z,99347.46
2023-02-24T05:59:35.204Z,99346.89
2023-02-24T06:02:09.498Z,99340.77
2023-02-24T06:04:50.805Z,99336.21
2023-02-24T06:07:22.934Z,99334.42
2023-02-24T06:09:58.601Z,99335.52
2023-02-24T06:12:39.965Z,99332.64
2023-02-24T06:15:10.843Z,99330.10
2023-02-24T06:17:39.551Z,99329.56
2023-02-24T06:20:15.684Z,99329.98
2023-02-24T06:22:45.103Z,99329.46
2023-02-24T06:25:18.628Z,99321.60
2023-02-24T06:27:54.206Z,99320.25
2023-02-24T06:30:23.498Z,99323.14
2023-02-24T06:32:51.980Z,99320.12
2023-02-24T06:35:20.473Z,99317.80
2023-02-24T06:37:50.954Z,99313.54
2023-02-24T06:40:20.059Z,99310.11
2023-02-24T06:42:49.750Z,99308.85
2023-02-24T06:45:18.983Z,99304.73
2023-02-24T06:47:49.995Z,99303.09
2023-02-24T06:50:20.242Z,99291.48
2023-02-24T06:52:49.296Z,99286.22
2023-02-24T06:55:26.969Z,99279.36
2023-02-24T06:58:04.151Z,99273.05
2023-02-24T07:00:39.850Z,99266.77
2023-02-24T07:03:15.924Z,99267.62
2023-02-24T07:05:50.262Z,99267.45
2023-02-24T07:08:23.114Z,99266.17
2023-02-24T07:10:56.078Z,99262.63
2023-02-24T07:13:26.220Z,99261.98
2023-02-24T07:16:06.984Z,99253.11
2023-02-24T07:18:37.416Z,99252.87
2023-02-24T07:21:06.273Z,99255.14
2023-02-24T07:23:35.101Z,99240.84
2023-02-24T07:26:10.201Z,99236.89
2023-02-24T07:28:42.590Z,99236.39
2023-02-24T07:31:17.195Z,99226.39
2023-02-24T07:33:46.671Z,99230.89
2023-02-24T07:36:18.343Z,99225.13
2023-02-24T07:38:46.610Z,99222.55
2023-02-24T07:41:19.992Z,99219.99
2023-02-24T07:43:50.806Z,99215.44
2023-02-24T07:46:29.401Z,99212.59
2023-02-24T07:48:59.854Z,99212.41
2023-02-24T07:51:29.462Z,99211.30
2023-02-24T07:54:03.261Z,99206.10
2023-02-24T07:56:46.051Z,99203.55
2023-02-24T07:59:19.393Z,99202.42
2023-02-24T08:01:50.273Z,99194.88
2023-02-24T08:04:19.642Z,99191.19
2023-02-24T08:06:50.342Z,99185.13
2023-02-24T08:09:20.787Z,99192.86
2023-02-24T08:11:55.337Z,99191.29
2023-02-24T08:14:32.735Z,99192.23
2023-02-24T08:17:01.334Z,99184.73
2023-02-24T08:19:33.391Z,99179.08
2023-02-24T08:22:19.953Z,99175.20
2023-02-24T08:24:54.468Z,99176.55
2023-02-24T08:27:25.879Z,99169.21
2023-02-24T08:30:01.701Z,99161.50
2023-02-24T08:32:37.072Z,99160.61
2023-02-24T08:35:14.972Z,99157.95
2023-02-24T08:37:48.363Z,99153.31
2023-02-24T08:40:32.188Z,99147.23
2023-02-24T08:43:32.989Z,99145.78
2023-02-24T08:46:26.702Z,99146.57
2023-02-24T08:49:01.126Z,99138.98
2023-02-24T08:51:43.741Z,99140.16
2023-02-24T08:54:17.182Z,99140.63
2023-02-24T08:56:56.170Z,99141.39
2023-02-24T08:59:38.347Z,99136.56
2023-02-24T09:02:18.758Z,99136.88
2023-02-24T09:04:48.794Z,99134.41
2023-02-24T09:07:35.369Z,99131.29
2023-02-24T09:10:11.636Z,99125.30
2023-02-24T09:12:41.483Z,99122.53
2023-02-24T09:15:10.804Z,99119.33
2023-02-24T09:17:45.419Z,99113.23
2023-02-24T09:20:42.745Z,99109.75
2023-02-24T09:23:20.332Z,99105.42
2023-02-24T09:25:54.292Z,99095.58
2023-02-24T09:28:26.748Z,99095.02
2023-02-24T09:30:59.385Z,99087.85
2023-02-24T09:33:41.380Z,99080.64
2023-02-24T09:36:36.838Z,99085.06
2023-02-24T09:39:05.010Z,99089.58
2023-02-24T09:42:18.889Z,99084.30
2023-02-24T09:44:56.210Z,99081.20
2023-02-24T09:47:56.293Z,99079.59
2023-02-24T09:51:01.653Z,99069.63
2023-02-24T09:53:29.618Z,99062.08
2023-02-24T09:56:06.195Z,99057.52
2023-02-24T09:58:49.562Z,99046.17
2023-02-24T10:01:31.089Z,99041.30
2023-02-24T10:04:14.973Z,99037.73
2023-02-24T10:06:58.779Z,99031.71
2023-02-24T10:09:34.477Z,99029.26
2023-02-24T10:12:24.167Z,99030.13
2023-02-24T10:15:17.125Z,99027.43
2023-02-24T10:17:55.536Z,99025.19
2023-02-24T10:20:39.864Z,99018.67
2023-02-24T10:23:29.923Z,99017.25
2023-02-24T10:26:33.401Z,99012.42
2023-02-24T10:29:22.799Z,99007.64
2023-02-24T10:31:57.972Z,99001.23
2023-02-24T10:34:31.939Z,98994.36
2023-02-24T10:37:19.342Z,98987.23
2023-02-24T10:40:00.005Z,98989.66
2023-02-24T10:42:32.335Z,98985.68
2023-02-24T10:45:17.317Z,98982.33
2023-02-24T10:47:57.472Z,98973.95
2023-02-24T10:50:33.859Z,98968.34
2023-02-24T10:53:26.788Z,98966.65
2023-02-24T10:56:18.864Z,98964.24
2023-02-24T10:58:53.011Z,98956.87
2023-02-24T11:01:40.891Z,98954.23
2023-02-24T11:04:33.274Z,98945.99
2023-02-24T11:07:24.567Z,98941.65
2023-02-24T11:10:13.880Z,98941.92
2023-02-24T11:13:09.922Z,98940.42
2023-02-24T11:16:05.275Z,98941.23
2023-02-24T11:18:35.088Z,98928.21
2023-02-24T11:21:09.539Z,98933.39
2023-02-24T11:23:42.668Z,98925.64
2023-02-24T11:26:23.705Z,98921.14
2023-02-24T11:29:19.964Z,98926.05
2023-02-24T11:32:11.609Z,98925.80
2023-02-24T11:34:49.736Z,98925.69
2023-02-24T11:37:24.401Z,98918.46
2023-02-24T11:40:00.203Z,98913.55
2023-02-24T11:42:46.238Z,98911.70
2023-02-24T11:45:37.924Z,98907.89
2023-02-24T11:48:10.431Z,98903.27
2023-02-24T11:50:45.075Z,98899.05
2023-02-24T11:53:30.248Z,98896.85
2023-02-24T11:56:36.940Z,98895.29
2023-02-24T11:59:21.303Z,98890.41
2023-02-24T12:02:16.624Z,98888.67
2023-02-24T12:05:00.689Z,98888.07
2023-02-24T12:07:32.982Z,98881.27
2023-02-24T12:10:17.121Z,98869.09
2023-02-24T12:13:11.558Z,98867.67
2023-02-24T12:15:44.162Z,98867.41
2023-02-24T12:18:21.019Z,98872.70
2023-02-24T12:20:52.975Z,98869.02
2023-02-24T12:23:33.165Z,98868.92
2023-02-24T12:26:26.193Z,98867.05
2023-02-24T12:29:32.800Z,98865.86
2023-02-24T12:32:21.092Z,98860.56
2023-02-24T12:35:07.057Z,98854.79
2023-02-24T12:37:51.126Z,98851.38
2023-02-24T12:40:29.813Z,98848.50
2023-02-24T12:42:57.857Z,98845.62
2023-02-24T12:45:38.757Z,98838.20
2023-02-24T12:48:44.642Z,98834.86
2023-02-24T12:51:16.396Z,98825.84
2023-02-24T12:53:49.430Z,98823.88
2023-02-24T12:56:25.821Z,98821.52
2023-02-24T12:59:00.511Z,98814.23
2023-02-24T13:01:36.307Z,98812.39
2023-02-24T13:04:29.103Z,98807.32
2023-02-24T13:07:06.739Z,98808.23
2023-02-24T13:09:41.926Z,98806.39
2023-02-24T13:12:35.006Z,98803.31
2023-02-24T13:15:19.578Z,98807.33
2023-02-24T13:17:56.398Z,98802.40
2023-02-24T13:20:32.165Z,98802.92
2023-02-24T13:23:04.970Z,98801.65
2023-02-24T13:25:39.472Z,98798.09
2023-02-24T13:28:28.085Z,98790.23
2023-02-24T13:30:58.550Z,98786.84
2023-02-24T13:33:35.214Z,98781.69
2023-02-24T13:36:14.208Z,98782.20
2023-02-24T13:38:47.461Z,98782.69
2023-02-24T13:41:37.472Z,98774.27
2023-02-24T13:44:28.132Z,98772.96
2023-02-24T13:47:14.579Z,98768.36
2023-02-24T13:50:18.906Z,98770.73
2023-02-24T13:53:31.415Z,98768.90
2023-02-24T13:56:30.045Z,98764.94
2023-02-24T13:59:24.072Z,98759.94
2023-02-24T14:01:58.943Z,98756.98
2023-02-24T14:04:35.382Z,98752.86
2023-02-24T14:07:05.415Z,98753.46
2023-02-24T14:09:45.332Z,98750.10
2023-02-24T14:12:21.901Z,98749.52
2023-02-24T14:14:50.185Z,98742.06
2023-02-24T14:17:36.249Z,98738.66
2023-02-24T14:20:06.802Z,98739.19
2023-02-24T14:22:43.601Z,98736.19
2023-02-24T14:25:12.172Z,98728.98
2023-02-24T14:27:43.362Z,98729.38
2023-02-24T14:30:33.526Z,98727.81
2023-02-24T14:33:03.585Z,98724.45
2023-02-24T14:35:39.078Z,98722.98
2023-02-24T14:38:45.746Z,98719.65
2023-02-24T14:41:19.699Z,98706.48
2023-02-24T14:43:49.297Z,98705.77
2023-02-24T14:46:17.460Z,98701.27
2023-02-24T14:48:45.843Z,98700.30
2023-02-24T14:51:24.993Z,98699.00
2023-02-24T14:53:56.784Z,98701.58
2023-02-24T14:56:28.870Z,98692.75
2023-02-24T14:59:03.629Z,98696.13
2023-02-24T15:01:36.685Z,98697.58
2023-02-24T15:04:30.356Z,98694.55
2023-02-24T15:06:59.162Z,98697.53
2023-02-24T15:09:37.660Z,98698.59
2023-02-24T15:12:13.540Z,98703.45
2023-02-24T15:14:52.650Z,98699.09
2023-02-24T15:17:21.736Z,98699.73
2023-02-24T15:19:54.667Z,98690.66
2023-02-24T15:25:37.190Z,98675.94
2023-02-24T15:28:26.818Z,98681.88
2023-02-24T15:31:11.472Z,98679.48
2023-02-24T15:33:41.731Z,98681.63
2023-02-24T15:36:21.914Z,98676.02
2023-02-24T15:38:58.599Z,98679.58
2023-02-24T15:41:27.010Z,98677.85
2023-02-24T15:43:56.292Z,98675.77
2023-02-24T15:46:32.432Z,98672.86
2023-02-24T15:49:04.525Z,98670.06
2023-02-24T15:51:47.384Z,98669.30
2023-02-24T15:54:18.844Z,98666.85
2023-02-24T15:56:47.692Z,98665.52
2023-02-24T15:59:21.205Z,98659.84
2023-02-24T16:01:49.508Z,98657.52
2023-02-24T16:04:17.799Z,98655.61
2023-02-24T16:06:54.810Z,98650.96
2023-02-24T16:09:36.335Z,98654.22
2023-02-24T16:12:06.807Z,98650.86
2023-02-24T16:14:37.813Z,98648.60
2023-02-24T16:17:09.151Z,98644.45
2023-02-24T16:19:38.954Z,98647.69
2023-02-24T16:22:08.928Z,98647.36
2023-02-24T16:24:38.348Z,98644.90
2023-02-24T16:27:06.857Z,98645.81
2023-02-24T16:29:34.933Z,98640.19
2023-02-24T16:32:04.421Z,98640.80
2023-02-24T16:34:32.738Z,98643.52
2023-02-24T16:37:01.502Z,98641.55
2023-02-24T16:39:30.179Z,98638.26
2023-02-24T16:41:59.432Z,98635.16
2023-02-24T16:44:27.535Z,98632.73
2023-02-24T16:46:56.537Z,98635.69
2023-02-24T16:49:25.537Z,98627.45
2023-02-24T16:51:54.001Z,98622.86
2023-02-24T16:54:22.600Z,98626.49
2023-02-24T16:56:52.134Z,98618.36
2023-02-24T16:59:21.711Z,98611.71
2023-02-24T17:01:50.445Z,98609.30
2023-02-24T17:04:19.114Z,98605.02
2023-02-24T17:06:47.652Z,98601.43
2023-02-24T17:09:16.063Z,98602.64
2023-02-24T17:11:44.688Z,98594.90
2023-02-24T17:14:17.178Z,98589.89
2023-02-24T17:16:46.208Z,98586.11
2023-02-24T17:19:14.774Z,98583.37
2023-02-24T17:21:43.889Z,98577.87
2023-02-24T17:24:18.964Z,98580.70
2023-02-24T17:26:47.473Z,98571.48
2023-02-24T17:29:15.888Z,98579.67
2023-02-24T17:31:44.555Z,98569.54
2023-02-24T17:34:16.690Z,98568.99
2023-02-24T17:36:45.934Z,98566.60
2023-02-24T17:39:14.232Z,98563.90
2023-02-24T17:41:42.501Z,98566.55
2023-02-24T17:44:10.793Z,98559.45
2023-02-24T17:46:40.472Z,98560.81
2023-02-24T17:49:08.912Z,98562.52
2023-02-24T17:51:37.442Z,98558.64
2023-02-24T17:54:05.899Z,98559.55
2023-02-24T17:56:34.379Z,98557.20
2023-02-24T17:59:03.271Z,98558.91
2023-02-24T18:01:31.548Z,98556.63
2023-02-24T18:04:00.972Z,98554.40
2023-02-24T18:06:29.323Z,98547.11
2023-02-24T18:08:58.833Z,98544.26
2023-02-24T18:11:27.200Z,98544.94
2023-02-24T18:14:00.426Z,98545.09
2023-02-24T18:16:30.685Z,98538.81
2023-02-24T18:18:58.892Z,98537.69
2023-02-24T18:21:26.993Z,98529.44
2023-02-24T18:23:56.179Z,98524.98
2023-02-24T18:26:26.291Z,98520.39
2023-02-24T18:28:55.808Z,98523.27
2023-02-24T18:31:26.970Z,98519.92
2023-02-24T18:33:56.399Z,98516.88
2023-02-24T18:36:24.852Z,98515.17
2023-02-24T18:38:53.448Z,98520.20
2023-02-24T18:41:23.451Z,98518.08
2023-02-24T18:43:53.024Z,98515.08
2023-02-24T18:46:22.269Z,98513.81
2023-02-24T18:48:52.829Z,98504.86
2023-02-24T18:51:22.375Z,98505.63
2023-02-24T18:53:52.803Z,98496.83
2023-02-24T18:56:23.625Z,98493.33
2023-02-24T18:58:58.412Z,98493.28
2023-02-24T19:01:27.800Z,98492.45
2023-02-24T19:03:56.506Z,98487.64
2023-02-24T19:06:27.012Z,98482.73
2023-02-24T19:08:58.747Z,98473.38
2023-02-24T19:11:29.056Z,98469.80
2023-02-24T19:13:57.969Z,98470.58
2023-02-24T19:16:26.444Z,98468.50
2023-02-24T19:18:58.591Z,98465.36
2023-02-24T19:21:28.107Z,98465.54
2023-02-24T19:24:01.006Z,98456.84
2023-02-24T19:26:30.194Z,98461.04
2023-02-24T19:29:00.806Z,98457.98
2023-02-24T19:31:31.147Z,98460.09
2023-02-24T19:34:01.881Z,98456.16
2023-02-24T19:36:32.021Z,98452.23
2023-02-24T19:39:00.329Z,98454.20
2023-02-24T19:41:28.508Z,98450.56
2023-02-24T19:43:58.728Z,98445.06
2023-02-24T19:46:28.764Z,98440.96
2023-02-24T19:48:56.834Z,98436.89
2023-02-24T19:51:25.538Z,98433.79
2023-02-24T19:53:58.687Z,98427.42
2023-02-24T19:56:34.093Z,98420.85
2023-02-24T19:59:02.967Z,98421.18
2023-02-24T20:01:31.501Z,98418.81
2023-02-24T20:04:01.906Z,98415.73
2023-02-24T20:06:32.264Z,98407.90
2023-02-24T20:09:01.835Z,98409.93
2023-02-24T20:11:31.030Z,98404.91
2023-02-24T20:14:02.064Z,98405.07
2023-02-24T20:16:34.919Z,98403.13
2023-02-24T20:19:10.092Z,98395.80
2023-02-24T20:21:38.985Z,98386.86
2023-02-24T20:24:10.130Z,98392.54
2023-02-24T20:26:43.315Z,98392.44
2023-02-24T20:29:12.931Z,98390.30
2023-02-24T20:31:41.419Z,98393.09
2023-02-24T20:34:10.757Z,98391.38
2023-02-24T20:36:40.984Z,98395.34
2023-02-24T20:39:12.408Z,98392.23
2023-02-24T20:41:40.805Z,98390.71
2023-02-24T20:44:10.528Z,98383.01
2023-02-24T20:46:38.904Z,98379.45
2023-02-24T20:49:08.979Z,98376.22
2023-02-24T20:51:38.055Z,98370.52
2023-02-24T20:54:07.598Z,98369.52
2023-02-24T20:56:38.043Z,98366.34
2023-02-24T20:59:15.247Z,98363.20
2023-02-24T21:01:47.069Z,98359.79
2023-02-24T21:04:17.344Z,98362.52
2023-02-24T21:06:47.815Z,98362.09
2023-02-24T21:09:19.666Z,98356.08
2023-02-24T21:11:48.302Z,98345.70
2023-02-24T21:14:16.791Z,98345.12
2023-02-24T21:16:46.176Z,98339.89
2023-02-24T21:19:15.114Z,98341.46
2023-02-24T21:21:43.491Z,98337.80
2023-02-24T21:24:12.995Z,98336.95
2023-02-24T21:26:42.494Z,98333.73
2023-02-24T21:29:10.693Z,98330.27
2023-02-24T21:31:38.885Z,98329.42
2023-02-24T21:34:11.520Z,98325.55
2023-02-24T21:36:41.514Z,98324.23
2023-02-24T21:39:14.633Z,98320.16
2023-02-24T21:41:43.039Z,98314.20
2023-02-24T21:44:12.248Z,98310.90
2023-02-24T21:46:45.762Z,98307.61
2023-02-24T21:49:15.514Z,98304.34
2023-02-24T21:51:48.938Z,98303.55
2023-02-24T21:54:17.646Z,98299.42
2023-02-24T21:56:45.700Z,98295.15
2023-02-24T21:59:13.984Z,98293.56
2023-02-24T22:01:43.032Z,98284.41
2023-02-24T22:04:13.202Z,98282.31
2023-02-24T22:06:41.740Z,98279.09
2023-02-24T22:09:14.291Z,98288.67
2023-02-24T22:11:42.643Z,98287.22
2023-02-24T22:14:13.589Z,98283.44
2023-02-24T22:16:41.928Z,98284.55
2023-02-24T22:19:11.472Z,98283.52
2023-02-24T22:21:42.445Z,98277.45
2023-02-24T22:24:12.934Z,98278.55
2023-02-24T22:26:41.221Z,98270.80
2023-02-24T22:29:09.985Z,98270.59
2023-02-24T22:31:39.147Z,98272.02
2023-02-24T22:34:08.857Z,98271.73
2023-02-24T22:36:37.447Z,98262.35
2023-02-24T22:39:05.749Z,98264.10
2023-02-24T22:41:34.448Z,98263.78
2023-02-24T22:44:04.023Z,98260.41
2023-02-24T22:46:35.736Z,98253.50
2023-02-24T22:49:05.556Z,98251.23
2023-02-24T22:51:33.974Z,98241.49
2023-02-24T22:54:02.226Z,98236.79
2023-02-24T22:56:31.182Z,98235.55
2023-02-24T22:59:01.640Z,98234.92
2023-02-24T23:01:35.080Z,98231.55
2023-02-24T23:04:07.256Z,98226.54
2023-02-24T23:06:36.517Z,98227.77
2023-02-24T23:09:05.156Z,98220.31
2023-02-24T23:11:37.524Z,98214.21
2023-02-24T23:14:10.085Z,98211.71
2023-02-24T23:16:39.027Z,98219.46
2023-02-24T23:19:16.969Z,98211.91
2023-02-24T23:21:48.220Z,98210.42
2023-02-24T23:24:16.872Z,98211.46
2023-02-24T23:26:46.643Z,98206.69
2023-02-24T23:29:17.439Z,98205.95
2023-02-24T23:31:47.681Z,98210.42
2023-02-24T23:34:15.986Z,98204.68
2023-02-24T23:36:45.921Z,98204.30
2023-02-24T23:39:23.060Z,98199.59
2023-02-24T23:41:56.862Z,98206.20
2023-02-24T23:44:25.768Z,98202.50
2023-02-24T23:46:54.136Z,98198.92
2023-02-24T23:49:24.132Z,98199.06
2023-02-24T23:51:53.078Z,98196.77
2023-02-24T23:54:21.248Z,98194.20
2023-02-24T23:56:50.624Z,98190.01
2023-02-24T23:59:21.671Z,98184.02
